Salt Lake City, Utah
Traffic Map
Current Weather Conditions
Salt Lake City, Utah
Broken Clouds
Broken Clouds
46°
Feels Like: 39°
Wind Chill: 39° Ceiling: 13000
Heat Index: 46° Visibility: 10mi
Dew Point: 26° Wind: 16mph
Humidity: 46% Direction: 140° (SE)
Pressure: 30.28in Gusts: 0mph
Raw Report DataKSLC 271253Z 14014KT 10SM BKN130 08/M03 A3028 RMK AO2 SLP240 T00781033
Traffic Incident Summary
Active as of:
Severity:
Category:
InformationThere was an issue retrieving the traffic information for this location. Please try a different location or try again shortly.
Advertisements
Track Severe Weather on mobile